sensor_id;sensor_type;location;lat;lon;timestamp;temperature;humidity
9808;DHT22;4943;52.550;13.462;2023-01-31T00:00:34;6.00;99.90
9808;DHT22;4943;52.550;13.462;2023-01-31T00:03:04;5.90;99.90
9808;DHT22;4943;52.550;13.462;2023-01-31T00:05:32;5.90;99.90
9808;DHT22;4943;52.550;13.462;2023-01-31T00:08:00;5.90;99.90
9808;DHT22;4943;52.550;13.462;2023-01-31T00:10:28;5.90;99.90
9808;DHT22;4943;52.550;13.462;2023-01-31T00:12:56;5.80;99.90
9808;DHT22;4943;52.550;13.462;2023-01-31T00:15:24;5.80;99.90
9808;DHT22;4943;52.550;13.462;2023-01-31T00:17:53;5.80;99.90
9808;DHT22;4943;52.550;13.462;2023-01-31T00:20:23;5.80;99.90
9808;DHT22;4943;52.550;13.462;2023-01-31T00:22:51;5.80;99.90
9808;DHT22;4943;52.550;13.462;2023-01-31T00:25:19;5.80;99.90
9808;DHT22;4943;52.550;13.462;2023-01-31T00:27:47;5.80;99.90
9808;DHT22;4943;52.550;13.462;2023-01-31T00:30:16;5.70;99.90
9808;DHT22;4943;52.550;13.462;2023-01-31T00:32:44;5.70;99.90
9808;DHT22;4943;52.550;13.462;2023-01-31T00:35:12;5.70;99.90
9808;DHT22;4943;52.550;13.462;2023-01-31T00:37:41;5.70;99.90
9808;DHT22;4943;52.550;13.462;2023-01-31T00:40:10;5.70;99.90
9808;DHT22;4943;52.550;13.462;2023-01-31T00:42:39;5.70;99.90
9808;DHT22;4943;52.550;13.462;2023-01-31T00:45:07;5.70;99.90
9808;DHT22;4943;52.550;13.462;2023-01-31T00:47:35;5.60;99.90
9808;DHT22;4943;52.550;13.462;2023-01-31T00:50:04;5.60;99.90
9808;DHT22;4943;52.550;13.462;2023-01-31T00:52:32;5.70;99.90
9808;DHT22;4943;52.550;13.462;2023-01-31T00:55:03;5.70;99.90
9808;DHT22;4943;52.550;13.462;2023-01-31T00:57:31;5.70;99.90
9808;DHT22;4943;52.550;13.462;2023-01-31T01:00:00;5.80;99.90
9808;DHT22;4943;52.550;13.462;2023-01-31T01:02:28;5.80;99.90
9808;DHT22;4943;52.550;13.462;2023-01-31T01:04:56;5.90;99.90
9808;DHT22;4943;52.550;13.462;2023-01-31T01:07:24;5.90;99.90
9808;DHT22;4943;52.550;13.462;2023-01-31T01:09:52;5.90;99.90
9808;DHT22;4943;52.550;13.462;2023-01-31T01:12:21;5.90;99.90
9808;DHT22;4943;52.550;13.462;2023-01-31T01:14:49;6.00;99.90
9808;DHT22;4943;52.550;13.462;2023-01-31T01:17:17;6.00;99.90
9808;DHT22;4943;52.550;13.462;2023-01-31T01:19:45;6.00;99.90
9808;DHT22;4943;52.550;13.462;2023-01-31T01:22:13;6.00;99.90
9808;DHT22;4943;52.550;13.462;2023-01-31T01:24:42;6.00;99.90
9808;DHT22;4943;52.550;13.462;2023-01-31T01:27:11;6.00;99.90
9808;DHT22;4943;52.550;13.462;2023-01-31T01:29:40;6.00;99.90
9808;DHT22;4943;52.550;13.462;2023-01-31T01:32:08;6.00;99.90
9808;DHT22;4943;52.550;13.462;2023-01-31T01:34:36;6.00;99.90
9808;DHT22;4943;52.550;13.462;2023-01-31T01:37:06;6.00;99.90
9808;DHT22;4943;52.550;13.462;2023-01-31T01:39:37;6.10;99.90
9808;DHT22;4943;52.550;13.462;2023-01-31T01:42:05;6.10;99.90
9808;DHT22;4943;52.550;13.462;2023-01-31T01:44:46;6.10;99.90
9808;DHT22;4943;52.550;13.462;2023-01-31T01:47:18;6.10;99.90
9808;DHT22;4943;52.550;13.462;2023-01-31T01:49:51;6.10;99.90
9808;DHT22;4943;52.550;13.462;2023-01-31T01:52:21;6.10;99.90
9808;DHT22;4943;52.550;13.462;2023-01-31T01:54:52;6.10;99.90
9808;DHT22;4943;52.550;13.462;2023-01-31T01:57:26;6.00;99.90
9808;DHT22;4943;52.550;13.462;2023-01-31T02:00:03;6.00;99.90
9808;DHT22;4943;52.550;13.462;2023-01-31T02:02:33;6.00;99.90
9808;DHT22;4943;52.550;13.462;2023-01-31T02:05:02;6.00;99.90
9808;DHT22;4943;52.550;13.462;2023-01-31T02:07:30;6.00;99.90
9808;DHT22;4943;52.550;13.462;2023-01-31T02:10:02;6.00;99.90
9808;DHT22;4943;52.550;13.462;2023-01-31T02:12:32;6.10;99.90
9808;DHT22;4943;52.550;13.462;2023-01-31T02:15:04;6.10;99.90
9808;DHT22;4943;52.550;13.462;2023-01-31T02:17:32;6.10;99.90
9808;DHT22;4943;52.550;13.462;2023-01-31T02:20:09;6.10;99.90
9808;DHT22;4943;52.550;13.462;2023-01-31T02:22:47;6.20;99.90
9808;DHT22;4943;52.550;13.462;2023-01-31T02:25:46;6.10;99.90
9808;DHT22;4943;52.550;13.462;2023-01-31T02:31:48;6.10;99.90
9808;DHT22;4943;52.550;13.462;2023-01-31T02:34:30;6.10;99.90
9808;DHT22;4943;52.550;13.462;2023-01-31T02:37:10;6.10;99.90
9808;DHT22;4943;52.550;13.462;2023-01-31T02:39:44;6.10;99.90
9808;DHT22;4943;52.550;13.462;2023-01-31T02:42:22;6.10;99.90
9808;DHT22;4943;52.550;13.462;2023-01-31T02:45:02;6.10;99.90
9808;DHT22;4943;52.550;13.462;2023-01-31T02:47:55;6.10;99.90
9808;DHT22;4943;52.550;13.462;2023-01-31T02:50:29;6.10;99.90
9808;DHT22;4943;52.550;13.462;2023-01-31T02:53:04;6.10;99.90
9808;DHT22;4943;52.550;13.462;2023-01-31T02:55:36;6.20;99.90
9808;DHT22;4943;52.550;13.462;2023-01-31T02:58:26;6.20;99.90
9808;DHT22;4943;52.550;13.462;2023-01-31T03:00:55;6.10;99.90
9808;DHT22;4943;52.550;13.462;2023-01-31T03:03:26;6.10;99.90
9808;DHT22;4943;52.550;13.462;2023-01-31T03:09:05;6.00;99.90
9808;DHT22;4943;52.550;13.462;2023-01-31T03:11:42;5.90;99.90
9808;DHT22;4943;52.550;13.462;2023-01-31T03:14:21;5.80;99.90
9808;DHT22;4943;52.550;13.462;2023-01-31T03:16:57;5.70;99.90
9808;DHT22;4943;52.550;13.462;2023-01-31T03:19:48;5.60;99.90
9808;DHT22;4943;52.550;13.462;2023-01-31T03:22:20;5.60;99.90
9808;DHT22;4943;52.550;13.462;2023-01-31T03:24:53;5.50;99.90
9808;DHT22;4943;52.550;13.462;2023-01-31T03:27:22;5.50;99.90
9808;DHT22;4943;52.550;13.462;2023-01-31T03:29:51;5.50;99.90
9808;DHT22;4943;52.550;13.462;2023-01-31T03:32:26;5.40;99.90
9808;DHT22;4943;52.550;13.462;2023-01-31T03:34:56;5.40;99.90
9808;DHT22;4943;52.550;13.462;2023-01-31T03:37:30;5.40;99.90
9808;DHT22;4943;52.550;13.462;2023-01-31T03:40:04;5.30;99.90
9808;DHT22;4943;52.550;13.462;2023-01-31T03:42:41;5.30;99.90
9808;DHT22;4943;52.550;13.462;2023-01-31T03:45:15;5.30;99.90
9808;DHT22;4943;52.550;13.462;2023-01-31T03:47:47;5.30;99.90
9808;DHT22;4943;52.550;13.462;2023-01-31T03:50:19;5.20;99.90
9808;DHT22;4943;52.550;13.462;2023-01-31T03:52:51;5.20;99.90
9808;DHT22;4943;52.550;13.462;2023-01-31T03:55:26;5.20;99.90
9808;DHT22;4943;52.550;13.462;2023-01-31T03:57:58;5.20;99.90
9808;DHT22;4943;52.550;13.462;2023-01-31T04:00:28;5.20;99.90
9808;DHT22;4943;52.550;13.462;2023-01-31T04:03:00;5.20;99.90
9808;DHT22;4943;52.550;13.462;2023-01-31T04:05:31;5.10;99.90
9808;DHT22;4943;52.550;13.462;2023-01-31T04:07:59;5.10;99.90
9808;DHT22;4943;52.550;13.462;2023-01-31T04:10:29;5.10;99.90
9808;DHT22;4943;52.550;13.462;2023-01-31T04:12:57;5.10;99.90
9808;DHT22;4943;52.550;13.462;2023-01-31T04:15:27;5.10;99.90
9808;DHT22;4943;52.550;13.462;2023-01-31T04:17:55;5.10;99.90
9808;DHT22;4943;52.550;13.462;2023-01-31T04:20:24;5.10;99.90
9808;DHT22;4943;52.550;13.462;2023-01-31T04:22:52;5.10;99.90
9808;DHT22;4943;52.550;13.462;2023-01-31T04:25:21;5.00;99.90
9808;DHT22;4943;52.550;13.462;2023-01-31T04:27:51;5.10;99.90
9808;DHT22;4943;52.550;13.462;2023-01-31T04:30:19;5.10;99.90
9808;DHT22;4943;52.550;13.462;2023-01-31T04:32:47;5.10;99.90
9808;DHT22;4943;52.550;13.462;2023-01-31T04:35:15;5.10;99.90
9808;DHT22;4943;52.550;13.462;2023-01-31T04:37:44;5.10;99.90
9808;DHT22;4943;52.550;13.462;2023-01-31T04:40:12;5.00;99.90
9808;DHT22;4943;52.550;13.462;2023-01-31T04:42:41;5.00;99.90
9808;DHT22;4943;52.550;13.462;2023-01-31T04:45:11;5.10;99.90
9808;DHT22;4943;52.550;13.462;2023-01-31T04:47:40;5.00;99.90
9808;DHT22;4943;52.550;13.462;2023-01-31T04:50:09;5.00;99.90
9808;DHT22;4943;52.550;13.462;2023-01-31T04:52:37;5.00;99.90
9808;DHT22;4943;52.550;13.462;2023-01-31T04:55:06;5.00;99.90
9808;DHT22;4943;52.550;13.462;2023-01-31T04:57:34;5.00;99.90
9808;DHT22;4943;52.550;13.462;2023-01-31T05:00:02;5.00;99.90
9808;DHT22;4943;52.550;13.462;2023-01-31T05:02:31;5.00;99.90
9808;DHT22;4943;52.550;13.462;2023-01-31T05:04:59;5.00;99.90
9808;DHT22;4943;52.550;13.462;2023-01-31T05:07:28;5.00;99.90
9808;DHT22;4943;52.550;13.462;2023-01-31T05:09:57;5.00;99.90
9808;DHT22;4943;52.550;13.462;2023-01-31T05:12:25;5.00;99.90
9808;DHT22;4943;52.550;13.462;2023-01-31T05:14:54;5.00;99.90
9808;DHT22;4943;52.550;13.462;2023-01-31T05:17:22;5.00;99.90
9808;DHT22;4943;52.550;13.462;2023-01-31T05:19:56;5.00;99.90
9808;DHT22;4943;52.550;13.462;2023-01-31T05:22:24;5.00;99.90
9808;DHT22;4943;52.550;13.462;2023-01-31T05:24:52;5.00;99.90
9808;DHT22;4943;52.550;13.462;2023-01-31T05:27:24;5.00;99.90
9808;DHT22;4943;52.550;13.462;2023-01-31T05:29:52;5.00;99.90
9808;DHT22;4943;52.550;13.462;2023-01-31T05:32:20;5.10;99.90
9808;DHT22;4943;52.550;13.462;2023-01-31T05:34:48;5.10;99.90
9808;DHT22;4943;52.550;13.462;2023-01-31T05:37:18;5.10;99.90
9808;DHT22;4943;52.550;13.462;2023-01-31T05:39:46;5.10;99.90
9808;DHT22;4943;52.550;13.462;2023-01-31T05:42:14;5.10;99.90
9808;DHT22;4943;52.550;13.462;2023-01-31T05:44:42;5.10;99.90
9808;DHT22;4943;52.550;13.462;2023-01-31T05:47:10;5.20;99.90
9808;DHT22;4943;52.550;13.462;2023-01-31T05:49:38;5.20;99.90
9808;DHT22;4943;52.550;13.462;2023-01-31T05:52:06;5.20;99.90
9808;DHT22;4943;52.550;13.462;2023-01-31T05:54:35;5.30;99.90
9808;DHT22;4943;52.550;13.462;2023-01-31T05:57:03;5.30;99.90
9808;DHT22;4943;52.550;13.462;2023-01-31T05:59:32;5.40;99.90
9808;DHT22;4943;52.550;13.462;2023-01-31T06:02:00;5.50;99.90
9808;DHT22;4943;52.550;13.462;2023-01-31T06:04:28;5.50;99.90
9808;DHT22;4943;52.550;13.462;2023-01-31T06:06:56;5.60;99.90
9808;DHT22;4943;52.550;13.462;2023-01-31T06:09:24;5.60;99.90
9808;DHT22;4943;52.550;13.462;2023-01-31T06:11:54;5.60;99.90
9808;DHT22;4943;52.550;13.462;2023-01-31T06:14:22;5.60;99.90
9808;DHT22;4943;52.550;13.462;2023-01-31T06:16:50;5.70;99.90
9808;DHT22;4943;52.550;13.462;2023-01-31T06:19:18;5.70;99.90
9808;DHT22;4943;52.550;13.462;2023-01-31T06:21:50;5.80;99.90
9808;DHT22;4943;52.550;13.462;2023-01-31T06:24:18;5.80;99.90
9808;DHT22;4943;52.550;13.462;2023-01-31T06:26:46;5.80;99.90
9808;DHT22;4943;52.550;13.462;2023-01-31T06:29:16;5.90;99.90
9808;DHT22;4943;52.550;13.462;2023-01-31T06:31:44;5.90;99.90
9808;DHT22;4943;52.550;13.462;2023-01-31T06:34:12;5.90;99.90
9808;DHT22;4943;52.550;13.462;2023-01-31T06:36:40;6.00;99.90
9808;DHT22;4943;52.550;13.462;2023-01-31T06:39:09;6.00;99.90
9808;DHT22;4943;52.550;13.462;2023-01-31T06:41:37;6.00;99.90
9808;DHT22;4943;52.550;13.462;2023-01-31T06:44:05;6.00;99.90
9808;DHT22;4943;52.550;13.462;2023-01-31T06:46:35;6.00;99.90
9808;DHT22;4943;52.550;13.462;2023-01-31T06:49:03;6.00;99.90
9808;DHT22;4943;52.550;13.462;2023-01-31T06:51:31;6.00;99.90
9808;DHT22;4943;52.550;13.462;2023-01-31T06:53:59;6.00;99.90
9808;DHT22;4943;52.550;13.462;2023-01-31T06:56:27;6.10;99.90
9808;DHT22;4943;52.550;13.462;2023-01-31T06:58:56;6.10;99.90
9808;DHT22;4943;52.550;13.462;2023-01-31T07:01:24;6.10;99.90
9808;DHT22;4943;52.550;13.462;2023-01-31T07:03:53;6.10;99.90
9808;DHT22;4943;52.550;13.462;2023-01-31T07:06:22;6.20;99.90
9808;DHT22;4943;52.550;13.462;2023-01-31T07:08:50;6.20;99.90
9808;DHT22;4943;52.550;13.462;2023-01-31T07:11:18;6.20;99.90
9808;DHT22;4943;52.550;13.462;2023-01-31T07:13:46;6.20;99.90
9808;DHT22;4943;52.550;13.462;2023-01-31T07:16:17;6.30;99.90
9808;DHT22;4943;52.550;13.462;2023-01-31T07:18:45;6.20;99.90
9808;DHT22;4943;52.550;13.462;2023-01-31T07:21:14;6.30;99.90
9808;DHT22;4943;52.550;13.462;2023-01-31T07:23:42;6.30;99.90
9808;DHT22;4943;52.550;13.462;2023-01-31T07:26:11;6.30;99.90
9808;DHT22;4943;52.550;13.462;2023-01-31T07:28:39;6.40;99.90
9808;DHT22;4943;52.550;13.462;2023-01-31T07:31:10;6.40;99.90
9808;DHT22;4943;52.550;13.462;2023-01-31T07:33:39;6.40;99.90
9808;DHT22;4943;52.550;13.462;2023-01-31T07:36:09;6.40;99.90
9808;DHT22;4943;52.550;13.462;2023-01-31T07:38:40;6.50;99.90
9808;DHT22;4943;52.550;13.462;2023-01-31T07:41:09;6.50;99.90
9808;DHT22;4943;52.550;13.462;2023-01-31T07:43:38;6.50;99.90
9808;DHT22;4943;52.550;13.462;2023-01-31T07:46:07;6.50;99.90
9808;DHT22;4943;52.550;13.462;2023-01-31T07:48:37;6.60;99.90
9808;DHT22;4943;52.550;13.462;2023-01-31T07:51:05;6.60;99.90
9808;DHT22;4943;52.550;13.462;2023-01-31T07:53:36;6.70;99.90
9808;DHT22;4943;52.550;13.462;2023-01-31T07:56:12;6.70;99.90
9808;DHT22;4943;52.550;13.462;2023-01-31T07:58:41;6.70;99.90
9808;DHT22;4943;52.550;13.462;2023-01-31T08:01:12;6.70;99.90
9808;DHT22;4943;52.550;13.462;2023-01-31T08:03:58;6.70;99.90
9808;DHT22;4943;52.550;13.462;2023-01-31T08:06:44;6.80;99.90
9808;DHT22;4943;52.550;13.462;2023-01-31T08:09:13;6.80;99.90
9808;DHT22;4943;52.550;13.462;2023-01-31T08:11:43;6.80;99.90
9808;DHT22;4943;52.550;13.462;2023-01-31T08:14:13;6.80;99.90
9808;DHT22;4943;52.550;13.462;2023-01-31T08:16:41;6.80;99.90
9808;DHT22;4943;52.550;13.462;2023-01-31T08:19:10;6.80;99.90
9808;DHT22;4943;52.550;13.462;2023-01-31T08:21:38;6.80;99.90
9808;DHT22;4943;52.550;13.462;2023-01-31T08:24:06;6.80;99.90
9808;DHT22;4943;52.550;13.462;2023-01-31T08:26:35;6.90;99.90
9808;DHT22;4943;52.550;13.462;2023-01-31T08:29:04;6.90;99.90
9808;DHT22;4943;52.550;13.462;2023-01-31T08:31:32;7.00;99.90
9808;DHT22;4943;52.550;13.462;2023-01-31T08:34:01;6.90;99.90
9808;DHT22;4943;52.550;13.462;2023-01-31T08:36:30;7.00;99.90
9808;DHT22;4943;52.550;13.462;2023-01-31T08:38:58;7.00;99.90
9808;DHT22;4943;52.550;13.462;2023-01-31T08:41:28;7.00;99.90
9808;DHT22;4943;52.550;13.462;2023-01-31T08:43:56;7.00;99.90
9808;DHT22;4943;52.550;13.462;2023-01-31T08:46:30;7.10;99.90
9808;DHT22;4943;52.550;13.462;2023-01-31T08:48:59;7.10;99.90
9808;DHT22;4943;52.550;13.462;2023-01-31T08:51:27;7.10;99.90
9808;DHT22;4943;52.550;13.462;2023-01-31T08:53:56;7.10;99.90
9808;DHT22;4943;52.550;13.462;2023-01-31T08:56:24;7.20;99.90
9808;DHT22;4943;52.550;13.462;2023-01-31T08:58:54;7.20;99.90
9808;DHT22;4943;52.550;13.462;2023-01-31T09:01:22;7.20;99.90
9808;DHT22;4943;52.550;13.462;2023-01-31T09:03:51;7.20;99.90
9808;DHT22;4943;52.550;13.462;2023-01-31T09:06:24;7.30;99.90
9808;DHT22;4943;52.550;13.462;2023-01-31T09:08:54;7.30;99.90
9808;DHT22;4943;52.550;13.462;2023-01-31T09:11:22;7.30;99.90
9808;DHT22;4943;52.550;13.462;2023-01-31T09:13:50;7.40;99.90
9808;DHT22;4943;52.550;13.462;2023-01-31T09:16:19;7.40;99.90
9808;DHT22;4943;52.550;13.462;2023-01-31T09:18:47;7.40;99.90
9808;DHT22;4943;52.550;13.462;2023-01-31T09:21:18;7.50;99.90
9808;DHT22;4943;52.550;13.462;2023-01-31T09:23:47;7.50;99.90
9808;DHT22;4943;52.550;13.462;2023-01-31T09:26:25;7.50;99.90
9808;DHT22;4943;52.550;13.462;2023-01-31T09:28:53;7.60;99.90
9808;DHT22;4943;52.550;13.462;2023-01-31T09:31:21;7.60;99.90
9808;DHT22;4943;52.550;13.462;2023-01-31T09:33:50;7.70;99.90
9808;DHT22;4943;52.550;13.462;2023-01-31T09:36:23;7.70;99.90
9808;DHT22;4943;52.550;13.462;2023-01-31T09:38:53;7.70;99.90
9808;DHT22;4943;52.550;13.462;2023-01-31T09:41:25;7.80;99.90
9808;DHT22;4943;52.550;13.462;2023-01-31T09:43:59;7.80;99.90
9808;DHT22;4943;52.550;13.462;2023-01-31T09:46:32;7.80;99.90
9808;DHT22;4943;52.550;13.462;2023-01-31T09:49:05;7.80;99.90
9808;DHT22;4943;52.550;13.462;2023-01-31T09:51:37;7.90;99.90
9808;DHT22;4943;52.550;13.462;2023-01-31T09:54:13;7.90;99.90
9808;DHT22;4943;52.550;13.462;2023-01-31T09:56:50;8.00;99.90
9808;DHT22;4943;52.550;13.462;2023-01-31T09:59:22;8.10;99.90
9808;DHT22;4943;52.550;13.462;2023-01-31T10:01:56;8.20;99.90
9808;DHT22;4943;52.550;13.462;2023-01-31T10:04:38;8.30;99.90
9808;DHT22;4943;52.550;13.462;2023-01-31T10:07:14;8.40;99.90
9808;DHT22;4943;52.550;13.462;2023-01-31T10:09:48;8.50;99.90
9808;DHT22;4943;52.550;13.462;2023-01-31T10:12:21;8.60;99.90
9808;DHT22;4943;52.550;13.462;2023-01-31T10:14:52;8.60;99.90
9808;DHT22;4943;52.550;13.462;2023-01-31T10:17:25;8.60;99.90
9808;DHT22;4943;52.550;13.462;2023-01-31T10:19:57;8.70;99.90
9808;DHT22;4943;52.550;13.462;2023-01-31T10:22:33;8.70;99.90
9808;DHT22;4943;52.550;13.462;2023-01-31T10:25:15;8.70;99.90
9808;DHT22;4943;52.550;13.462;2023-01-31T10:27:47;8.80;99.90
9808;DHT22;4943;52.550;13.462;2023-01-31T10:30:20;8.70;99.90
9808;DHT22;4943;52.550;13.462;2023-01-31T10:32:56;8.70;99.90
9808;DHT22;4943;52.550;13.462;2023-01-31T10:35:28;8.60;99.90
9808;DHT22;4943;52.550;13.462;2023-01-31T10:38:04;8.60;99.90
9808;DHT22;4943;52.550;13.462;2023-01-31T10:40:45;8.60;99.90
9808;DHT22;4943;52.550;13.462;2023-01-31T10:43:18;8.60;99.90
9808;DHT22;4943;52.550;13.462;2023-01-31T10:45:48;8.60;99.90
9808;DHT22;4943;52.550;13.462;2023-01-31T10:48:18;8.50;99.90
9808;DHT22;4943;52.550;13.462;2023-01-31T10:50:57;8.60;99.90
9808;DHT22;4943;52.550;13.462;2023-01-31T10:53:44;8.60;99.90
9808;DHT22;4943;52.550;13.462;2023-01-31T10:56:18;8.70;99.90
9808;DHT22;4943;52.550;13.462;2023-01-31T10:58:48;8.80;99.90
9808;DHT22;4943;52.550;13.462;2023-01-31T11:01:17;8.90;99.90
9808;DHT22;4943;52.550;13.462;2023-01-31T11:03:48;9.00;99.90
9808;DHT22;4943;52.550;13.462;2023-01-31T11:06:17;9.10;99.90
9808;DHT22;4943;52.550;13.462;2023-01-31T11:08:48;9.10;99.90
9808;DHT22;4943;52.550;13.462;2023-01-31T11:11:19;9.30;99.90
9808;DHT22;4943;52.550;13.462;2023-01-31T11:13:59;9.40;99.90
9808;DHT22;4943;52.550;13.462;2023-01-31T11:16:31;9.40;99.90
9808;DHT22;4943;52.550;13.462;2023-01-31T11:19:03;9.40;99.90
9808;DHT22;4943;52.550;13.462;2023-01-31T11:21:34;9.40;99.90
9808;DHT22;4943;52.550;13.462;2023-01-31T11:24:14;9.30;99.90
9808;DHT22;4943;52.550;13.462;2023-01-31T11:26:51;9.20;99.90
9808;DHT22;4943;52.550;13.462;2023-01-31T11:29:22;9.20;99.90
9808;DHT22;4943;52.550;13.462;2023-01-31T11:31:52;9.10;99.90
9808;DHT22;4943;52.550;13.462;2023-01-31T11:34:23;9.10;99.90
9808;DHT22;4943;52.550;13.462;2023-01-31T11:36:51;9.20;99.90
9808;DHT22;4943;52.550;13.462;2023-01-31T11:39:27;9.20;99.90
9808;DHT22;4943;52.550;13.462;2023-01-31T11:41:55;9.20;99.90
9808;DHT22;4943;52.550;13.462;2023-01-31T11:44:23;9.20;99.90
9808;DHT22;4943;52.550;13.462;2023-01-31T11:46:54;9.30;99.90
9808;DHT22;4943;52.550;13.462;2023-01-31T11:49:28;9.30;99.90
9808;DHT22;4943;52.550;13.462;2023-01-31T11:51:58;9.30;99.90
9808;DHT22;4943;52.550;13.462;2023-01-31T11:54:31;9.20;99.90
9808;DHT22;4943;52.550;13.462;2023-01-31T11:57:01;9.20;99.90
9808;DHT22;4943;52.550;13.462;2023-01-31T11:59:30;9.20;99.90
9808;DHT22;4943;52.550;13.462;2023-01-31T12:01:59;9.20;99.90
9808;DHT22;4943;52.550;13.462;2023-01-31T12:04:33;9.10;99.90
9808;DHT22;4943;52.550;13.462;2023-01-31T12:07:21;9.10;99.90
9808;DHT22;4943;52.550;13.462;2023-01-31T12:09:51;9.10;99.90
9808;DHT22;4943;52.550;13.462;2023-01-31T12:12:27;9.10;99.90
9808;DHT22;4943;52.550;13.462;2023-01-31T12:15:00;9.10;99.90
9808;DHT22;4943;52.550;13.462;2023-01-31T12:17:42;9.00;99.90
9808;DHT22;4943;52.550;13.462;2023-01-31T12:20:21;8.90;99.90
9808;DHT22;4943;52.550;13.462;2023-01-31T12:23:01;9.00;99.90
9808;DHT22;4943;52.550;13.462;2023-01-31T12:25:44;9.00;99.90
9808;DHT22;4943;52.550;13.462;2023-01-31T12:28:26;8.90;99.90
9808;DHT22;4943;52.550;13.462;2023-01-31T12:31:15;9.00;99.90
9808;DHT22;4943;52.550;13.462;2023-01-31T12:33:56;9.00;99.90
9808;DHT22;4943;52.550;13.462;2023-01-31T12:36:39;9.00;99.90
9808;DHT22;4943;52.550;13.462;2023-01-31T12:39:29;8.90;99.90
9808;DHT22;4943;52.550;13.462;2023-01-31T12:42:15;8.90;99.90
9808;DHT22;4943;52.550;13.462;2023-01-31T12:44:47;8.90;99.90
9808;DHT22;4943;52.550;13.462;2023-01-31T12:47:41;8.90;99.90
9808;DHT22;4943;52.550;13.462;2023-01-31T12:50:25;8.90;99.90
9808;DHT22;4943;52.550;13.462;2023-01-31T12:53:19;8.80;99.90
9808;DHT22;4943;52.550;13.462;2023-01-31T12:55:59;8.80;99.90
9808;DHT22;4943;52.550;13.462;2023-01-31T12:58:40;8.70;99.90
9808;DHT22;4943;52.550;13.462;2023-01-31T13:01:15;8.70;99.90
9808;DHT22;4943;52.550;13.462;2023-01-31T13:03:57;8.60;99.90
9808;DHT22;4943;52.550;13.462;2023-01-31T13:06:30;8.60;99.90
9808;DHT22;4943;52.550;13.462;2023-01-31T13:09:02;8.50;99.90
9808;DHT22;4943;52.550;13.462;2023-01-31T13:11:38;8.50;99.90
9808;DHT22;4943;52.550;13.462;2023-01-31T13:14:15;8.50;99.90
9808;DHT22;4943;52.550;13.462;2023-01-31T13:16:47;8.50;99.90
9808;DHT22;4943;52.550;13.462;2023-01-31T13:19:22;8.50;99.90
9808;DHT22;4943;52.550;13.462;2023-01-31T13:21:56;8.50;99.90
9808;DHT22;4943;52.550;13.462;2023-01-31T13:24:27;8.50;99.90
9808;DHT22;4943;52.550;13.462;2023-01-31T13:27:03;8.50;99.90
9808;DHT22;4943;52.550;13.462;2023-01-31T13:29:38;8.50;99.90
9808;DHT22;4943;52.550;13.462;2023-01-31T13:32:11;8.50;99.90
9808;DHT22;4943;52.550;13.462;2023-01-31T13:34:47;8.50;99.90
9808;DHT22;4943;52.550;13.462;2023-01-31T13:37:17;8.50;99.90
9808;DHT22;4943;52.550;13.462;2023-01-31T13:39:49;8.50;99.90
9808;DHT22;4943;52.550;13.462;2023-01-31T13:42:19;8.50;99.90
9808;DHT22;4943;52.550;13.462;2023-01-31T13:44:51;8.40;99.90
9808;DHT22;4943;52.550;13.462;2023-01-31T13:47:21;8.40;99.90
9808;DHT22;4943;52.550;13.462;2023-01-31T13:49:58;8.40;99.90
9808;DHT22;4943;52.550;13.462;2023-01-31T13:52:31;8.40;99.90
9808;DHT22;4943;52.550;13.462;2023-01-31T13:55:05;8.40;99.90
9808;DHT22;4943;52.550;13.462;2023-01-31T13:57:43;8.40;99.90
9808;DHT22;4943;52.550;13.462;2023-01-31T14:00:29;8.40;99.90
9808;DHT22;4943;52.550;13.462;2023-01-31T14:03:02;8.40;99.90
9808;DHT22;4943;52.550;13.462;2023-01-31T14:05:51;8.40;99.90
9808;DHT22;4943;52.550;13.462;2023-01-31T14:08:56;8.40;99.90
9808;DHT22;4943;52.550;13.462;2023-01-31T14:11:34;8.40;99.90
9808;DHT22;4943;52.550;13.462;2023-01-31T14:14:25;8.40;99.90
9808;DHT22;4943;52.550;13.462;2023-01-31T14:16:57;8.40;99.90
9808;DHT22;4943;52.550;13.462;2023-01-31T14:22:30;8.30;99.90
9808;DHT22;4943;52.550;13.462;2023-01-31T14:25:03;8.20;99.90
9808;DHT22;4943;52.550;13.462;2023-01-31T14:27:37;8.20;99.90
9808;DHT22;4943;52.550;13.462;2023-01-31T14:33:05;8.30;99.90
9808;DHT22;4943;52.550;13.462;2023-01-31T14:36:03;8.30;99.90
9808;DHT22;4943;52.550;13.462;2023-01-31T14:38:44;8.30;99.90
9808;DHT22;4943;52.550;13.462;2023-01-31T14:41:20;8.30;99.90
9808;DHT22;4943;52.550;13.462;2023-01-31T14:44:01;8.30;99.90
9808;DHT22;4943;52.550;13.462;2023-01-31T14:47:15;8.30;99.90
9808;DHT22;4943;52.550;13.462;2023-01-31T14:53:07;8.30;99.90
9808;DHT22;4943;52.550;13.462;2023-01-31T14:55:54;8.20;99.90
9808;DHT22;4943;52.550;13.462;2023-01-31T14:58:27;8.20;99.90
9808;DHT22;4943;52.550;13.462;2023-01-31T15:00:59;8.20;99.90
9808;DHT22;4943;52.550;13.462;2023-01-31T15:03:31;8.20;99.90
9808;DHT22;4943;52.550;13.462;2023-01-31T15:06:10;8.20;99.90
9808;DHT22;4943;52.550;13.462;2023-01-31T15:08:43;8.20;99.90
9808;DHT22;4943;52.550;13.462;2023-01-31T15:14:27;8.20;99.90
9808;DHT22;4943;52.550;13.462;2023-01-31T15:17:05;8.20;99.90
9808;DHT22;4943;52.550;13.462;2023-01-31T15:20:02;8.10;99.90
9808;DHT22;4943;52.550;13.462;2023-01-31T15:22:38;8.10;99.90
9808;DHT22;4943;52.550;13.462;2023-01-31T15:25:20;8.10;99.90
9808;DHT22;4943;52.550;13.462;2023-01-31T15:27:50;8.10;99.90
9808;DHT22;4943;52.550;13.462;2023-01-31T15:30:20;8.10;99.90
9808;DHT22;4943;52.550;13.462;2023-01-31T15:32:53;8.20;99.90
9808;DHT22;4943;52.550;13.462;2023-01-31T15:35:26;8.20;99.90
9808;DHT22;4943;52.550;13.462;2023-01-31T15:38:00;8.10;99.90
9808;DHT22;4943;52.550;13.462;2023-01-31T15:40:30;8.20;99.90
9808;DHT22;4943;52.550;13.462;2023-01-31T15:43:15;8.20;99.90
9808;DHT22;4943;52.550;13.462;2023-01-31T15:45:44;8.20;99.90
9808;DHT22;4943;52.550;13.462;2023-01-31T15:48:18;8.20;99.90
9808;DHT22;4943;52.550;13.462;2023-01-31T15:50:49;8.20;99.90
9808;DHT22;4943;52.550;13.462;2023-01-31T15:53:22;8.20;99.90
9808;DHT22;4943;52.550;13.462;2023-01-31T15:55:54;8.20;99.90
9808;DHT22;4943;52.550;13.462;2023-01-31T15:58:25;8.20;99.90
9808;DHT22;4943;52.550;13.462;2023-01-31T16:00:56;8.20;99.90
9808;DHT22;4943;52.550;13.462;2023-01-31T16:03:26;8.20;99.90
9808;DHT22;4943;52.550;13.462;2023-01-31T16:05:56;8.20;99.90
9808;DHT22;4943;52.550;13.462;2023-01-31T16:08:29;8.20;99.90
9808;DHT22;4943;52.550;13.462;2023-01-31T16:11:00;8.20;99.90
9808;DHT22;4943;52.550;13.462;2023-01-31T16:13:30;8.30;99.90
9808;DHT22;4943;52.550;13.462;2023-01-31T16:16:02;8.30;99.90
9808;DHT22;4943;52.550;13.462;2023-01-31T16:18:31;8.30;99.90
9808;DHT22;4943;52.550;13.462;2023-01-31T16:21:11;8.30;99.90
9808;DHT22;4943;52.550;13.462;2023-01-31T16:23:42;8.30;99.90
9808;DHT22;4943;52.550;13.462;2023-01-31T16:26:14;8.30;99.90
9808;DHT22;4943;52.550;13.462;2023-01-31T16:28:46;8.30;99.90
9808;DHT22;4943;52.550;13.462;2023-01-31T16:31:17;8.30;99.90
9808;DHT22;4943;52.550;13.462;2023-01-31T16:33:49;8.20;99.90
9808;DHT22;4943;52.550;13.462;2023-01-31T16:36:22;8.20;99.90
9808;DHT22;4943;52.550;13.462;2023-01-31T16:38:57;8.30;99.90
9808;DHT22;4943;52.550;13.462;2023-01-31T16:41:40;8.30;99.90
9808;DHT22;4943;52.550;13.462;2023-01-31T16:44:11;8.30;99.90
9808;DHT22;4943;52.550;13.462;2023-01-31T16:46:42;8.30;99.90
9808;DHT22;4943;52.550;13.462;2023-01-31T16:49:20;8.30;99.90
9808;DHT22;4943;52.550;13.462;2023-01-31T16:51:49;8.40;99.90
9808;DHT22;4943;52.550;13.462;2023-01-31T16:54:23;8.40;99.90